sensor_id;sensor_type;location;lat;lon;timestamp;P1;durP1;ratioP1;P2;durP2;ratioP2
16093;SDS011;8151;47.824;12.092;2022-07-23T00:01:30;2.67;;;2.42;;
16093;SDS011;8151;47.824;12.092;2022-07-23T00:03:59;3.80;;;2.90;;
16093;SDS011;8151;47.824;12.092;2022-07-23T00:06:28;3.50;;;3.20;;
16093;SDS011;8151;47.824;12.092;2022-07-23T00:08:56;2.78;;;2.58;;
16093;SDS011;8151;47.824;12.092;2022-07-23T00:11:27;3.42;;;2.95;;
16093;SDS011;8151;47.824;12.092;2022-07-23T00:13:55;3.07;;;2.70;;
16093;SDS011;8151;47.824;12.092;2022-07-23T00:16:25;4.57;;;3.03;;
16093;SDS011;8151;47.824;12.092;2022-07-23T00:18:53;3.30;;;2.88;;
16093;SDS011;8151;47.824;12.092;2022-07-23T00:21:22;3.42;;;3.13;;
16093;SDS011;8151;47.824;12.092;2022-07-23T00:23:51;3.30;;;3.00;;
16093;SDS011;8151;47.824;12.092;2022-07-23T00:26:19;4.30;;;2.95;;
16093;SDS011;8151;47.824;12.092;2022-07-23T00:28:49;5.00;;;3.30;;
16093;SDS011;8151;47.824;12.092;2022-07-23T00:31:18;4.83;;;3.33;;
16093;SDS011;8151;47.824;12.092;2022-07-23T00:33:47;3.97;;;3.50;;
16093;SDS011;8151;47.824;12.092;2022-07-23T00:36:15;6.83;;;3.70;;
16093;SDS011;8151;47.824;12.092;2022-07-23T00:38:44;5.00;;;4.13;;
16093;SDS011;8151;47.824;12.092;2022-07-23T00:41:12;4.10;;;3.70;;
16093;SDS011;8151;47.824;12.092;2022-07-23T00:43:41;5.17;;;4.23;;
16093;SDS011;8151;47.824;12.092;2022-07-23T00:46:11;4.07;;;3.40;;
16093;SDS011;8151;47.824;12.092;2022-07-23T00:48:39;5.73;;;3.87;;
16093;SDS011;8151;47.824;12.092;2022-07-23T00:51:08;4.47;;;4.07;;
16093;SDS011;8151;47.824;12.092;2022-07-23T00:53:36;3.77;;;3.47;;
16093;SDS011;8151;47.824;12.092;2022-07-23T00:56:05;7.57;;;3.70;;
16093;SDS011;8151;47.824;12.092;2022-07-23T00:58:35;4.20;;;3.80;;
16093;SDS011;8151;47.824;12.092;2022-07-23T01:01:04;4.23;;;3.87;;
16093;SDS011;8151;47.824;12.092;2022-07-23T01:03:34;4.73;;;3.73;;
16093;SDS011;8151;47.824;12.092;2022-07-23T01:06:03;3.60;;;3.30;;
16093;SDS011;8151;47.824;12.092;2022-07-23T01:08:32;3.70;;;3.40;;
16093;SDS011;8151;47.824;12.092;2022-07-23T01:11:00;5.27;;;3.50;;
16093;SDS011;8151;47.824;12.092;2022-07-23T01:13:29;4.43;;;3.63;;
16093;SDS011;8151;47.824;12.092;2022-07-23T01:15:57;4.30;;;3.50;;
16093;SDS011;8151;47.824;12.092;2022-07-23T01:18:26;4.40;;;3.93;;
16093;SDS011;8151;47.824;12.092;2022-07-23T01:20:56;5.17;;;3.63;;
16093;SDS011;8151;47.824;12.092;2022-07-23T01:23:26;4.97;;;3.40;;
16093;SDS011;8151;47.824;12.092;2022-07-23T01:25:54;3.77;;;3.47;;
16093;SDS011;8151;47.824;12.092;2022-07-23T01:28:23;4.17;;;3.47;;
16093;SDS011;8151;47.824;12.092;2022-07-23T01:30:51;4.23;;;3.53;;
16093;SDS011;8151;47.824;12.092;2022-07-23T01:33:20;4.17;;;3.77;;
16093;SDS011;8151;47.824;12.092;2022-07-23T01:35:49;4.47;;;3.53;;
16093;SDS011;8151;47.824;12.092;2022-07-23T01:38:18;4.87;;;3.53;;
16093;SDS011;8151;47.824;12.092;2022-07-23T01:40:48;4.37;;;3.50;;
16093;SDS011;8151;47.824;12.092;2022-07-23T01:43:20;5.70;;;4.07;;
16093;SDS011;8151;47.824;12.092;2022-07-23T01:45:52;4.40;;;3.70;;
16093;SDS011;8151;47.824;12.092;2022-07-23T01:48:21;4.57;;;3.50;;
16093;SDS011;8151;47.824;12.092;2022-07-23T01:50:50;4.87;;;3.43;;
16093;SDS011;8151;47.824;12.092;2022-07-23T01:53:18;4.30;;;3.57;;
16093;SDS011;8151;47.824;12.092;2022-07-23T01:55:48;5.53;;;3.73;;
16093;SDS011;8151;47.824;12.092;2022-07-23T01:58:19;4.10;;;3.70;;
16093;SDS011;8151;47.824;12.092;2022-07-23T02:00:48;4.90;;;4.33;;
16093;SDS011;8151;47.824;12.092;2022-07-23T02:03:19;4.60;;;4.20;;
16093;SDS011;8151;47.824;12.092;2022-07-23T02:05:49;4.73;;;4.30;;
16093;SDS011;8151;47.824;12.092;2022-07-23T02:08:18;5.87;;;4.70;;
16093;SDS011;8151;47.824;12.092;2022-07-23T02:10:46;5.20;;;4.70;;
16093;SDS011;8151;47.824;12.092;2022-07-23T02:13:16;7.67;;;4.83;;
16093;SDS011;8151;47.824;12.092;2022-07-23T02:15:45;5.53;;;4.97;;
16093;SDS011;8151;47.824;12.092;2022-07-23T02:18:14;6.17;;;4.33;;
16093;SDS011;8151;47.824;12.092;2022-07-23T02:20:43;6.67;;;5.00;;
16093;SDS011;8151;47.824;12.092;2022-07-23T02:23:11;5.17;;;4.67;;
16093;SDS011;8151;47.824;12.092;2022-07-23T02:25:40;6.10;;;4.83;;
16093;SDS011;8151;47.824;12.092;2022-07-23T02:28:08;5.40;;;4.40;;
16093;SDS011;8151;47.824;12.092;2022-07-23T02:30:38;6.97;;;4.63;;
16093;SDS011;8151;47.824;12.092;2022-07-23T02:33:07;5.27;;;4.60;;
16093;SDS011;8151;47.824;12.092;2022-07-23T02:35:35;6.30;;;4.80;;
16093;SDS011;8151;47.824;12.092;2022-07-23T02:38:04;5.40;;;4.90;;
16093;SDS011;8151;47.824;12.092;2022-07-23T02:40:32;5.70;;;4.83;;
16093;SDS011;8151;47.824;12.092;2022-07-23T02:43:00;5.90;;;5.00;;
16093;SDS011;8151;47.824;12.092;2022-07-23T02:45:29;4.57;;;4.17;;
16093;SDS011;8151;47.824;12.092;2022-07-23T02:47:59;7.00;;;4.53;;
16093;SDS011;8151;47.824;12.092;2022-07-23T02:50:27;6.63;;;4.53;;
16093;SDS011;8151;47.824;12.092;2022-07-23T02:52:56;8.60;;;4.53;;
16093;SDS011;8151;47.824;12.092;2022-07-23T02:55:25;4.33;;;3.93;;
16093;SDS011;8151;47.824;12.092;2022-07-23T02:57:54;6.73;;;4.30;;
16093;SDS011;8151;47.824;12.092;2022-07-23T03:00:22;4.77;;;4.13;;
16093;SDS011;8151;47.824;12.092;2022-07-23T03:02:51;4.67;;;4.07;;
16093;SDS011;8151;47.824;12.092;2022-07-23T03:05:21;5.93;;;4.23;;
16093;SDS011;8151;47.824;12.092;2022-07-23T03:07:49;4.30;;;3.90;;
16093;SDS011;8151;47.824;12.092;2022-07-23T03:10:18;5.03;;;4.50;;
16093;SDS011;8151;47.824;12.092;2022-07-23T03:12:47;4.53;;;4.13;;
16093;SDS011;8151;47.824;12.092;2022-07-23T03:15:15;5.67;;;4.17;;
16093;SDS011;8151;47.824;12.092;2022-07-23T03:17:44;4.37;;;3.97;;
16093;SDS011;8151;47.824;12.092;2022-07-23T03:20:12;4.40;;;3.97;;
16093;SDS011;8151;47.824;12.092;2022-07-23T03:22:42;4.57;;;4.10;;
16093;SDS011;8151;47.824;12.092;2022-07-23T03:25:11;4.17;;;3.80;;
16093;SDS011;8151;47.824;12.092;2022-07-23T03:27:39;5.93;;;4.00;;
16093;SDS011;8151;47.824;12.092;2022-07-23T03:30:08;6.37;;;4.10;;
16093;SDS011;8151;47.824;12.092;2022-07-23T03:32:37;6.07;;;4.00;;
16093;SDS011;8151;47.824;12.092;2022-07-23T03:35:06;6.53;;;4.20;;
16093;SDS011;8151;47.824;12.092;2022-07-23T03:37:35;4.30;;;3.90;;
16093;SDS011;8151;47.824;12.092;2022-07-23T03:40:06;5.60;;;3.33;;
16093;SDS011;8151;47.824;12.092;2022-07-23T03:42:35;5.10;;;4.40;;
16093;SDS011;8151;47.824;12.092;2022-07-23T03:45:06;6.63;;;4.13;;
16093;SDS011;8151;47.824;12.092;2022-07-23T03:47:35;4.43;;;4.03;;
16093;SDS011;8151;47.824;12.092;2022-07-23T03:50:04;4.53;;;4.03;;
16093;SDS011;8151;47.824;12.092;2022-07-23T03:52:33;5.70;;;4.13;;
16093;SDS011;8151;47.824;12.092;2022-07-23T03:55:02;5.40;;;3.80;;
16093;SDS011;8151;47.824;12.092;2022-07-23T03:57:32;4.67;;;3.73;;
16093;SDS011;8151;47.824;12.092;2022-07-23T04:00:01;5.90;;;4.00;;
16093;SDS011;8151;47.824;12.092;2022-07-23T04:02:31;7.17;;;4.30;;
16093;SDS011;8151;47.824;12.092;2022-07-23T04:04:59;4.77;;;4.00;;
16093;SDS011;8151;47.824;12.092;2022-07-23T04:07:28;4.87;;;4.23;;
16093;SDS011;8151;47.824;12.092;2022-07-23T04:09:56;8.37;;;4.37;;
16093;SDS011;8151;47.824;12.092;2022-07-23T04:12:25;4.40;;;4.00;;
16093;SDS011;8151;47.824;12.092;2022-07-23T04:14:55;4.47;;;4.07;;
16093;SDS011;8151;47.824;12.092;2022-07-23T04:17:23;4.90;;;4.40;;
16093;SDS011;8151;47.824;12.092;2022-07-23T04:19:52;5.60;;;4.30;;
16093;SDS011;8151;47.824;12.092;2022-07-23T04:22:21;5.13;;;4.43;;
16093;SDS011;8151;47.824;12.092;2022-07-23T04:24:49;7.93;;;4.13;;
16093;SDS011;8151;47.824;12.092;2022-07-23T04:27:18;5.37;;;3.97;;
16093;SDS011;8151;47.824;12.092;2022-07-23T04:29:46;6.50;;;4.10;;
16093;SDS011;8151;47.824;12.092;2022-07-23T04:32:16;4.27;;;3.90;;
16093;SDS011;8151;47.824;12.092;2022-07-23T04:34:45;4.93;;;4.00;;
16093;SDS011;8151;47.824;12.092;2022-07-23T04:37:13;5.47;;;4.30;;
16093;SDS011;8151;47.824;12.092;2022-07-23T04:39:42;4.77;;;3.90;;
16093;SDS011;8151;47.824;12.092;2022-07-23T04:42:11;5.73;;;4.50;;
16093;SDS011;8151;47.824;12.092;2022-07-23T04:44:40;6.17;;;4.40;;
16093;SDS011;8151;47.824;12.092;2022-07-23T04:47:08;6.10;;;4.27;;
16093;SDS011;8151;47.824;12.092;2022-07-23T04:49:40;8.30;;;4.53;;
16093;SDS011;8151;47.824;12.092;2022-07-23T04:52:08;4.83;;;4.40;;
16093;SDS011;8151;47.824;12.092;2022-07-23T04:54:37;5.07;;;4.57;;
16093;SDS011;8151;47.824;12.092;2022-07-23T04:57:06;5.43;;;4.67;;
16093;SDS011;8151;47.824;12.092;2022-07-23T04:59:34;4.90;;;4.40;;
16093;SDS011;8151;47.824;12.092;2022-07-23T05:02:03;4.83;;;4.43;;
16093;SDS011;8151;47.824;12.092;2022-07-23T05:04:31;5.50;;;4.67;;
16093;SDS011;8151;47.824;12.092;2022-07-23T05:07:01;5.10;;;4.47;;
16093;SDS011;8151;47.824;12.092;2022-07-23T05:09:30;8.13;;;4.80;;
16093;SDS011;8151;47.824;12.092;2022-07-23T05:11:59;5.40;;;4.70;;
16093;SDS011;8151;47.824;12.092;2022-07-23T05:14:27;5.73;;;4.87;;
16093;SDS011;8151;47.824;12.092;2022-07-23T05:16:56;5.43;;;4.90;;
16093;SDS011;8151;47.824;12.092;2022-07-23T05:19:24;5.53;;;4.97;;
16093;SDS011;8151;47.824;12.092;2022-07-23T05:21:53;5.70;;;4.97;;
16093;SDS011;8151;47.824;12.092;2022-07-23T05:24:22;7.67;;;4.90;;
16093;SDS011;8151;47.824;12.092;2022-07-23T05:26:51;5.73;;;5.00;;
16093;SDS011;8151;47.824;12.092;2022-07-23T05:29:20;11.13;;;5.20;;
16093;SDS011;8151;47.824;12.092;2022-07-23T05:31:48;8.80;;;5.40;;
16093;SDS011;8151;47.824;12.092;2022-07-23T05:34:17;5.20;;;4.60;;
16093;SDS011;8151;47.824;12.092;2022-07-23T05:36:45;5.73;;;5.13;;
16093;SDS011;8151;47.824;12.092;2022-07-23T05:39:15;7.53;;;5.13;;
16093;SDS011;8151;47.824;12.092;2022-07-23T05:41:45;5.53;;;5.03;;
16093;SDS011;8151;47.824;12.092;2022-07-23T05:44:14;5.70;;;4.90;;
16093;SDS011;8151;47.824;12.092;2022-07-23T05:46:42;5.40;;;4.30;;
16093;SDS011;8151;47.824;12.092;2022-07-23T05:49:11;4.50;;;4.10;;
16093;SDS011;8151;47.824;12.092;2022-07-23T05:51:40;4.83;;;4.33;;
16093;SDS011;8151;47.824;12.092;2022-07-23T05:54:12;4.90;;;4.33;;
16093;SDS011;8151;47.824;12.092;2022-07-23T05:56:40;5.10;;;4.13;;
16093;SDS011;8151;47.824;12.092;2022-07-23T05:59:11;4.50;;;4.10;;
16093;SDS011;8151;47.824;12.092;2022-07-23T06:01:41;7.20;;;4.17;;
16093;SDS011;8151;47.824;12.092;2022-07-23T06:04:10;5.80;;;4.07;;
16093;SDS011;8151;47.824;12.092;2022-07-23T06:06:39;6.03;;;4.23;;
16093;SDS011;8151;47.824;12.092;2022-07-23T06:09:07;6.50;;;4.17;;
16093;SDS011;8151;47.824;12.092;2022-07-23T06:11:37;6.30;;;4.23;;
16093;SDS011;8151;47.824;12.092;2022-07-23T06:14:06;4.83;;;4.40;;
16093;SDS011;8151;47.824;12.092;2022-07-23T06:16:36;5.23;;;4.10;;
16093;SDS011;8151;47.824;12.092;2022-07-23T06:19:04;5.23;;;4.00;;
16093;SDS011;8151;47.824;12.092;2022-07-23T06:21:33;3.97;;;3.57;;
16093;SDS011;8151;47.824;12.092;2022-07-23T06:24:13;4.30;;;3.90;;
16093;SDS011;8151;47.824;12.092;2022-07-23T06:26:41;4.77;;;3.43;;
16093;SDS011;8151;47.824;12.092;2022-07-23T06:29:12;3.80;;;3.33;;
16093;SDS011;8151;47.824;12.092;2022-07-23T06:31:42;5.53;;;3.23;;
16093;SDS011;8151;47.824;12.092;2022-07-23T06:34:11;4.53;;;3.50;;
16093;SDS011;8151;47.824;12.092;2022-07-23T06:36:39;4.87;;;3.37;;
16093;SDS011;8151;47.824;12.092;2022-07-23T06:39:08;3.97;;;3.50;;
16093;SDS011;8151;47.824;12.092;2022-07-23T06:41:37;3.70;;;3.40;;
16093;SDS011;8151;47.824;12.092;2022-07-23T06:44:06;3.93;;;3.50;;
16093;SDS011;8151;47.824;12.092;2022-07-23T06:46:34;3.73;;;3.43;;
16093;SDS011;8151;47.824;12.092;2022-07-23T06:49:04;5.43;;;3.90;;
16093;SDS011;8151;47.824;12.092;2022-07-23T06:51:33;3.37;;;3.07;;
16093;SDS011;8151;47.824;12.092;2022-07-23T06:54:02;4.20;;;3.80;;
16093;SDS011;8151;47.824;12.092;2022-07-23T06:56:32;3.77;;;3.40;;
16093;SDS011;8151;47.824;12.092;2022-07-23T06:59:01;6.57;;;4.30;;
16093;SDS011;8151;47.824;12.092;2022-07-23T07:01:30;5.10;;;4.60;;
16093;SDS011;8151;47.824;12.092;2022-07-23T07:03:59;8.63;;;3.83;;
16093;SDS011;8151;47.824;12.092;2022-07-23T07:06:29;4.20;;;3.90;;
16093;SDS011;8151;47.824;12.092;2022-07-23T07:08:57;7.93;;;4.70;;
16093;SDS011;8151;47.824;12.092;2022-07-23T07:11:26;4.90;;;4.13;;
16093;SDS011;8151;47.824;12.092;2022-07-23T07:13:55;4.70;;;4.30;;
16093;SDS011;8151;47.824;12.092;2022-07-23T07:16:23;6.03;;;4.50;;
16093;SDS011;8151;47.824;12.092;2022-07-23T07:18:58;5.57;;;4.40;;
16093;SDS011;8151;47.824;12.092;2022-07-23T07:21:29;4.47;;;4.10;;
16093;SDS011;8151;47.824;12.092;2022-07-23T07:23:58;5.47;;;4.60;;
16093;SDS011;8151;47.824;12.092;2022-07-23T07:26:26;4.83;;;4.27;;
16093;SDS011;8151;47.824;12.092;2022-07-23T07:28:55;5.97;;;4.70;;
16093;SDS011;8151;47.824;12.092;2022-07-23T07:31:24;6.30;;;4.57;;
16093;SDS011;8151;47.824;12.092;2022-07-23T07:33:53;5.80;;;4.83;;
16093;SDS011;8151;47.824;12.092;2022-07-23T07:36:24;5.80;;;5.03;;
16093;SDS011;8151;47.824;12.092;2022-07-23T07:38:54;4.53;;;4.13;;
16093;SDS011;8151;47.824;12.092;2022-07-23T07:41:22;5.33;;;4.70;;
16093;SDS011;8151;47.824;12.092;2022-07-23T07:43:52;6.00;;;4.50;;
16093;SDS011;8151;47.824;12.092;2022-07-23T07:46:21;4.70;;;4.30;;
16093;SDS011;8151;47.824;12.092;2022-07-23T07:48:51;5.17;;;4.67;;
16093;SDS011;8151;47.824;12.092;2022-07-23T07:51:24;4.83;;;4.30;;
16093;SDS011;8151;47.824;12.092;2022-07-23T07:53:54;4.60;;;4.20;;
16093;SDS011;8151;47.824;12.092;2022-07-23T07:56:23;4.47;;;3.83;;
16093;SDS011;8151;47.824;12.092;2022-07-23T07:58:52;3.67;;;3.37;;
16093;SDS011;8151;47.824;12.092;2022-07-23T08:01:20;3.70;;;3.40;;
16093;SDS011;8151;47.824;12.092;2022-07-23T08:03:49;3.57;;;3.27;;
16093;SDS011;8151;47.824;12.092;2022-07-23T08:06:17;2.80;;;2.60;;
16093;SDS011;8151;47.824;12.092;2022-07-23T08:08:47;3.63;;;3.20;;
16093;SDS011;8151;47.824;12.092;2022-07-23T08:11:17;3.40;;;2.90;;
16093;SDS011;8151;47.824;12.092;2022-07-23T08:13:45;3.17;;;2.93;;
16093;SDS011;8151;47.824;12.092;2022-07-23T08:16:14;3.77;;;3.37;;
16093;SDS011;8151;47.824;12.092;2022-07-23T08:18:43;3.70;;;3.40;;
16093;SDS011;8151;47.824;12.092;2022-07-23T08:21:11;3.30;;;3.00;;
16093;SDS011;8151;47.824;12.092;2022-07-23T08:23:40;3.67;;;2.77;;
16093;SDS011;8151;47.824;12.092;2022-07-23T08:26:08;3.27;;;2.90;;
16093;SDS011;8151;47.824;12.092;2022-07-23T08:28:38;4.73;;;3.00;;
16093;SDS011;8151;47.824;12.092;2022-07-23T08:31:06;4.80;;;3.10;;
16093;SDS011;8151;47.824;12.092;2022-07-23T08:33:35;3.73;;;3.07;;
16093;SDS011;8151;47.824;12.092;2022-07-23T08:36:04;2.90;;;2.70;;
16093;SDS011;8151;47.824;12.092;2022-07-23T08:38:33;3.20;;;2.90;;
16093;SDS011;8151;47.824;12.092;2022-07-23T08:41:02;3.03;;;2.83;;
16093;SDS011;8151;47.824;12.092;2022-07-23T08:43:32;2.97;;;2.60;;
16093;SDS011;8151;47.824;12.092;2022-07-23T08:46:03;4.80;;;3.17;;
16093;SDS011;8151;47.824;12.092;2022-07-23T08:48:33;3.03;;;2.73;;
16093;SDS011;8151;47.824;12.092;2022-07-23T08:51:06;3.63;;;2.90;;
16093;SDS011;8151;47.824;12.092;2022-07-23T08:53:36;3.70;;;2.77;;
16093;SDS011;8151;47.824;12.092;2022-07-23T08:56:05;3.67;;;2.80;;
16093;SDS011;8151;47.824;12.092;2022-07-23T08:58:36;3.60;;;2.77;;
16093;SDS011;8151;47.824;12.092;2022-07-23T09:01:06;3.17;;;2.87;;
16093;SDS011;8151;47.824;12.092;2022-07-23T09:03:35;3.00;;;2.77;;
16093;SDS011;8151;47.824;12.092;2022-07-23T09:06:05;6.10;;;2.70;;
16093;SDS011;8151;47.824;12.092;2022-07-23T09:08:35;4.33;;;2.70;;
16093;SDS011;8151;47.824;12.092;2022-07-23T09:11:05;3.07;;;2.60;;
16093;SDS011;8151;47.824;12.092;2022-07-23T09:13:37;4.37;;;3.00;;
16093;SDS011;8151;47.824;12.092;2022-07-23T09:16:11;3.30;;;3.00;;
16093;SDS011;8151;47.824;12.092;2022-07-23T09:18:43;8.07;;;2.87;;
16093;SDS011;8151;47.824;12.092;2022-07-23T09:21:15;3.40;;;3.10;;
16093;SDS011;8151;47.824;12.092;2022-07-23T09:23:48;3.30;;;3.00;;
16093;SDS011;8151;47.824;12.092;2022-07-23T09:26:26;3.33;;;2.80;;
16093;SDS011;8151;47.824;12.092;2022-07-23T09:29:09;5.00;;;2.90;;
16093;SDS011;8151;47.824;12.092;2022-07-23T09:31:44;3.77;;;2.90;;
16093;SDS011;8151;47.824;12.092;2022-07-23T09:34:16;3.93;;;3.00;;
16093;SDS011;8151;47.824;12.092;2022-07-23T09:36:50;3.20;;;2.90;;
16093;SDS011;8151;47.824;12.092;2022-07-23T09:39:25;3.43;;;3.13;;
16093;SDS011;8151;47.824;12.092;2022-07-23T09:41:55;3.40;;;3.10;;
16093;SDS011;8151;47.824;12.092;2022-07-23T09:44:24;3.17;;;2.60;;
16093;SDS011;8151;47.824;12.092;2022-07-23T09:46:59;3.40;;;3.10;;
16093;SDS011;8151;47.824;12.092;2022-07-23T09:49:28;4.07;;;3.30;;
16093;SDS011;8151;47.824;12.092;2022-07-23T09:51:58;4.70;;;3.10;;
16093;SDS011;8151;47.824;12.092;2022-07-23T09:54:30;3.50;;;3.20;;
16093;SDS011;8151;47.824;12.092;2022-07-23T09:57:02;3.30;;;2.90;;
16093;SDS011;8151;47.824;12.092;2022-07-23T09:59:34;6.23;;;3.40;;
16093;SDS011;8151;47.824;12.092;2022-07-23T10:02:06;3.10;;;2.80;;
16093;SDS011;8151;47.824;12.092;2022-07-23T10:04:36;3.30;;;3.00;;
16093;SDS011;8151;47.824;12.092;2022-07-23T10:07:05;4.17;;;2.93;;
16093;SDS011;8151;47.824;12.092;2022-07-23T10:09:38;5.83;;;3.37;;
16093;SDS011;8151;47.824;12.092;2022-07-23T10:12:09;5.10;;;2.90;;
16093;SDS011;8151;47.824;12.092;2022-07-23T10:14:56;4.23;;;2.97;;
16093;SDS011;8151;47.824;12.092;2022-07-23T10:17:28;3.30;;;2.93;;
16093;SDS011;8151;47.824;12.092;2022-07-23T10:19:57;4.03;;;3.10;;
16093;SDS011;8151;47.824;12.092;2022-07-23T10:22:26;2.93;;;2.67;;
16093;SDS011;8151;47.824;12.092;2022-07-23T10:25:02;3.23;;;2.97;;
16093;SDS011;8151;47.824;12.092;2022-07-23T10:27:47;3.00;;;2.80;;
16093;SDS011;8151;47.824;12.092;2022-07-23T10:30:26;3.10;;;2.90;;
16093;SDS011;8151;47.824;12.092;2022-07-23T10:33:06;3.87;;;3.00;;
16093;SDS011;8151;47.824;12.092;2022-07-23T10:35:43;3.10;;;2.90;;
16093;SDS011;8151;47.824;12.092;2022-07-23T10:38:19;4.03;;;3.23;;
16093;SDS011;8151;47.824;12.092;2022-07-23T10:40:55;2.97;;;2.73;;
16093;SDS011;8151;47.824;12.092;2022-07-23T10:43:25;3.63;;;3.23;;
16093;SDS011;8151;47.824;12.092;2022-07-23T10:45:55;4.27;;;3.20;;
16093;SDS011;8151;47.824;12.092;2022-07-23T10:48:46;3.20;;;3.00;;
16093;SDS011;8151;47.824;12.092;2022-07-23T10:54:45;4.57;;;3.13;;
16093;SDS011;8151;47.824;12.092;2022-07-23T10:57:16;3.00;;;2.80;;
16093;SDS011;8151;47.824;12.092;2022-07-23T11:02:44;3.67;;;3.00;;
16093;SDS011;8151;47.824;12.092;2022-07-23T11:05:16;4.43;;;3.40;;
16093;SDS011;8151;47.824;12.092;2022-07-23T11:10:44;3.60;;;3.30;;
16093;SDS011;8151;47.824;12.092;2022-07-23T11:13:36;4.00;;;3.37;;
16093;SDS011;8151;47.824;12.092;2022-07-23T11:16:16;3.30;;;3.00;;
16093;SDS011;8151;47.824;12.092;2022-07-23T11:19:05;3.70;;;3.40;;
16093;SDS011;8151;47.824;12.092;2022-07-23T11:21:42;3.20;;;2.90;;
16093;SDS011;8151;47.824;12.092;2022-07-23T11:24:13;3.90;;;3.13;;
16093;SDS011;8151;47.824;12.092;2022-07-23T11:26:44;3.43;;;3.13;;
16093;SDS011;8151;47.824;12.092;2022-07-23T11:32:23;5.93;;;3.05;;
16093;SDS011;8151;47.824;12.092;2022-07-23T11:34:56;3.58;;;3.08;;
16093;SDS011;8151;47.824;12.092;2022-07-23T11:37:31;4.07;;;3.30;;
16093;SDS011;8151;47.824;12.092;2022-07-23T11:40:06;3.55;;;3.25;;
16093;SDS011;8151;47.824;12.092;2022-07-23T11:42:38;4.07;;;3.20;;
16093;SDS011;8151;47.824;12.092;2022-07-23T11:45:07;4.22;;;2.85;;
16093;SDS011;8151;47.824;12.092;2022-07-23T11:47:37;6.10;;;3.08;;
16093;SDS011;8151;47.824;12.092;2022-07-23T11:50:06;3.10;;;2.80;;
16093;SDS011;8151;47.824;12.092;2022-07-23T11:52:36;2.80;;;2.60;;
16093;SDS011;8151;47.824;12.092;2022-07-23T11:55:05;3.53;;;3.00;;
16093;SDS011;8151;47.824;12.092;2022-07-23T11:57:36;3.30;;;2.97;;
16093;SDS011;8151;47.824;12.092;2022-07-23T12:00:07;3.55;;;3.25;;
16093;SDS011;8151;47.824;12.092;2022-07-23T12:02:38;8.35;;;3.50;;
16093;SDS011;8151;47.824;12.092;2022-07-23T12:05:07;5.47;;;3.67;;
16093;SDS011;8151;47.824;12.092;2022-07-23T12:07:41;5.20;;;3.72;;
16093;SDS011;8151;47.824;12.092;2022-07-23T12:10:12;3.90;;;3.60;;
16093;SDS011;8151;47.824;12.092;2022-07-23T12:12:43;4.10;;;3.70;;
16093;SDS011;8151;47.824;12.092;2022-07-23T12:15:14;3.55;;;3.20;;
16093;SDS011;8151;47.824;12.092;2022-07-23T12:17:45;4.13;;;3.72;;
16093;SDS011;8151;47.824;12.092;2022-07-23T12:20:18;4.55;;;4.05;;
16093;SDS011;8151;47.824;12.092;2022-07-23T12:22:51;4.72;;;3.67;;
16093;SDS011;8151;47.824;12.092;2022-07-23T12:25:22;5.10;;;3.72;;
16093;SDS011;8151;47.824;12.092;2022-07-23T12:27:58;5.60;;;3.95;;
16093;SDS011;8151;47.824;12.092;2022-07-23T12:30:30;4.55;;;3.92;;
16093;SDS011;8151;47.824;12.092;2022-07-23T12:33:01;4.57;;;3.92;;
16093;SDS011;8151;47.824;12.092;2022-07-23T12:35:35;3.55;;;3.25;;
16093;SDS011;8151;47.824;12.092;2022-07-23T12:38:08;3.90;;;3.28;;
16093;SDS011;8151;47.824;12.092;2022-07-23T12:40:41;4.07;;;3.22;;
16093;SDS011;8151;47.824;12.092;2022-07-23T12:43:17;3.92;;;3.47;;
16093;SDS011;8151;47.824;12.092;2022-07-23T12:45:48;4.50;;;3.88;;
16093;SDS011;8151;47.824;12.092;2022-07-23T12:48:19;4.68;;;3.95;;
16093;SDS011;8151;47.824;12.092;2022-07-23T12:50:50;5.80;;;3.70;;
16093;SDS011;8151;47.824;12.092;2022-07-23T12:53:23;3.60;;;3.30;;
16093;SDS011;8151;47.824;12.092;2022-07-23T12:55:57;7.38;;;3.95;;
16093;SDS011;8151;47.824;12.092;2022-07-23T12:58:42;4.05;;;3.65;;
16093;SDS011;8151;47.824;12.092;2022-07-23T13:01:33;5.13;;;3.50;;
16093;SDS011;8151;47.824;12.092;2022-07-23T13:04:04;5.70;;;3.63;;
16093;SDS011;8151;47.824;12.092;2022-07-23T13:06:40;3.80;;;3.50;;
16093;SDS011;8151;47.824;12.092;2022-07-23T13:09:12;5.25;;;3.88;;
16093;SDS011;8151;47.824;12.092;2022-07-23T13:11:42;4.90;;;3.90;;
16093;SDS011;8151;47.824;12.092;2022-07-23T13:14:13;4.78;;;4.35;;
16093;SDS011;8151;47.824;12.092;2022-07-23T13:16:42;6.15;;;4.00;;
16093;SDS011;8151;47.824;12.092;2022-07-23T13:19:14;5.78;;;4.00;;
16093;SDS011;8151;47.824;12.092;2022-07-23T13:21:45;3.95;;;3.63;;
16093;SDS011;8151;47.824;12.092;2022-07-23T13:24:15;4.72;;;3.80;;
16093;SDS011;8151;47.824;12.092;2022-07-23T13:26:44;4.15;;;3.75;;
16093;SDS011;8151;47.824;12.092;2022-07-23T13:29:14;4.45;;;3.70;;
16093;SDS011;8151;47.824;12.092;2022-07-23T13:31:43;7.18;;;3.97;;
16093;SDS011;8151;47.824;12.092;2022-07-23T13:34:12;4.72;;;3.80;;
16093;SDS011;8151;47.824;12.092;2022-07-23T13:36:40;4.50;;;4.00;;
16093;SDS011;8151;47.824;12.092;2022-07-23T13:39:10;6.43;;;4.00;;
16093;SDS011;8151;47.824;12.092;2022-07-23T13:41:40;4.22;;;3.47;;
16093;SDS011;8151;47.824;12.092;2022-07-23T13:44:16;4.05;;;3.55;;
16093;SDS011;8151;47.824;12.092;2022-07-23T13:46:49;5.80;;;3.58;;
16093;SDS011;8151;47.824;12.092;2022-07-23T13:49:17;3.55;;;3.08;;
16093;SDS011;8151;47.824;12.092;2022-07-23T13:51:48;3.92;;;3.10;;
16093;SDS011;8151;47.824;12.092;2022-07-23T13:54:20;3.90;;;3.10;;
16093;SDS011;8151;47.824;12.092;2022-07-23T13:56:50;3.58;;;3.30;;
16093;SDS011;8151;47.824;12.092;2022-07-23T13:59:20;4.65;;;3.30;;
16093;SDS011;8151;47.824;12.092;2022-07-23T14:01:52;4.93;;;3.75;;
16093;SDS011;8151;47.824;12.092;2022-07-23T14:04:41;4.88;;;3.40;;
16093;SDS011;8151;47.824;12.092;2022-07-23T14:07:09;3.60;;;3.20;;
16093;SDS011;8151;47.824;12.092;2022-07-23T14:09:38;5.97;;;3.80;;
16093;SDS011;8151;47.824;12.092;2022-07-23T14:12:08;4.07;;;3.70;;
16093;SDS011;8151;47.824;12.092;2022-07-23T14:14:37;4.60;;;3.45;;
16093;SDS011;8151;47.824;12.092;2022-07-23T14:17:06;4.22;;;3.17;;
16093;SDS011;8151;47.824;12.092;2022-07-23T14:19:37;4.13;;;3.40;;
16093;SDS011;8151;47.824;12.092;2022-07-23T14:22:06;3.78;;;3.47;;
16093;SDS011;8151;47.824;12.092;2022-07-23T14:24:34;4.38;;;3.50;;
16093;SDS011;8151;47.824;12.092;2022-07-23T14:27:03;4.40;;;3.75;;
16093;SDS011;8151;47.824;12.092;2022-07-23T14:29:35;7.88;;;7.00;;
16093;SDS011;8151;47.824;12.092;2022-07-23T14:32:03;5.53;;;4.00;;
16093;SDS011;8151;47.824;12.092;2022-07-23T14:34:32;4.05;;;3.60;;
16093;SDS011;8151;47.824;12.092;2022-07-23T14:37:04;4.20;;;3.80;;
16093;SDS011;8151;47.824;12.092;2022-07-23T14:39:33;5.07;;;3.65;;
16093;SDS011;8151;47.824;12.092;2022-07-23T14:42:02;7.25;;;4.95;;
16093;SDS011;8151;47.824;12.092;2022-07-23T14:44:30;4.03;;;3.63;;
16093;SDS011;8151;47.824;12.092;2022-07-23T14:47:00;4.25;;;3.85;;
16093;SDS011;8151;47.824;12.092;2022-07-23T14:49:30;3.97;;;3.40;;
16093;SDS011;8151;47.824;12.092;2022-07-23T14:51:59;5.07;;;4.25;;
16093;SDS011;8151;47.824;12.092;2022-07-23T14:54:27;5.00;;;3.97;;
16093;SDS011;8151;47.824;12.092;2022-07-23T14:56:56;3.92;;;3.63;;
16093;SDS011;8151;47.824;12.092;2022-07-23T14:59:27;3.90;;;3.50;;
16093;SDS011;8151;47.824;12.092;2022-07-23T15:01:57;3.95;;;3.55;;
16093;SDS011;8151;47.824;12.092;2022-07-23T15:04:28;4.47;;;4.00;;
16093;SDS011;8151;47.824;12.092;2022-07-23T15:07:04;3.58;;;3.20;;
16093;SDS011;8151;47.824;12.092;2022-07-23T15:09:33;3.75;;;3.33;;
16093;SDS011;8151;47.824;12.092;2022-07-23T15:12:02;3.90;;;3.30;;
16093;SDS011;8151;47.824;12.092;2022-07-23T15:14:34;6.05;;;3.67;;
16093;SDS011;8151;47.824;12.092;2022-07-23T15:17:04;4.18;;;3.40;;
16093;SDS011;8151;47.824;12.092;2022-07-23T15:19:35;3.92;;;3.50;;